createdAt,value
2022-10-22T00:00:05.944Z,90.23
2022-10-22T00:02:54.703Z,90.39
2022-10-22T00:05:24.902Z,90.43
2022-10-22T00:07:53.636Z,90.27
2022-10-22T00:10:22.663Z,90.13
2022-10-22T00:12:51.267Z,90.24
2022-10-22T00:15:20.266Z,90.37
2022-10-22T00:17:49.340Z,90.39
2022-10-22T00:20:21.008Z,90.39
2022-10-22T00:25:24.680Z,90.59
2022-10-22T00:27:53.374Z,90.58
2022-10-22T00:30:22.739Z,90.58
2022-10-22T00:32:51.411Z,90.54
2022-10-22T00:35:19.930Z,90.46
2022-10-22T00:37:48.496Z,90.39
2022-10-22T00:40:17.668Z,90.38
2022-10-22T00:42:49.467Z,90.50
2022-10-22T00:45:27.131Z,90.62
2022-10-22T00:48:00.115Z,90.42
2022-10-22T00:50:34.027Z,90.59
2022-10-22T00:53:04.368Z,90.57
2022-10-22T00:55:37.320Z,90.65
2022-10-22T00:58:08.377Z,90.78
2022-10-22T01:00:41.622Z,90.74
2022-10-22T01:03:14.180Z,90.48
2022-10-22T01:05:47.812Z,90.70
2022-10-22T01:08:25.671Z,90.75
2022-10-22T01:11:08.365Z,90.88
2022-10-22T01:13:50.533Z,90.91
2022-10-22T01:16:26.022Z,90.93
2022-10-22T01:19:05.245Z,90.88
2022-10-22T01:21:40.921Z,90.92
2022-10-22T01:24:38.428Z,90.81
2022-10-22T01:27:30.602Z,90.93
2022-10-22T01:30:03.613Z,91.09
2022-10-22T01:32:36.695Z,91.06
2022-10-22T01:35:10.295Z,91.22
2022-10-22T01:37:45.532Z,91.22
2022-10-22T01:40:19.382Z,91.33
2022-10-22T01:42:58.789Z,91.42
2022-10-22T01:45:30.160Z,91.59
2022-10-22T01:48:12.266Z,91.59
2022-10-22T01:51:01.191Z,91.65
2022-10-22T01:53:42.563Z,91.78
2022-10-22T01:56:34.527Z,91.72
2022-10-22T01:59:10.522Z,91.72
2022-10-22T02:01:54.104Z,91.85
2022-10-22T02:04:27.896Z,91.74
2022-10-22T02:07:01.259Z,91.65
2022-10-22T02:09:32.029Z,91.74
2022-10-22T02:12:03.534Z,91.91
2022-10-22T02:14:34.015Z,92.05
2022-10-22T02:17:03.936Z,92.09
2022-10-22T02:19:43.500Z,92.18
2022-10-22T02:22:13.703Z,92.29
2022-10-22T02:24:44.742Z,92.36
2022-10-22T02:27:25.837Z,92.43
2022-10-22T02:30:02.838Z,92.58
2022-10-22T02:32:43.008Z,92.71
2022-10-22T02:35:14.949Z,92.75
2022-10-22T02:37:44.493Z,92.80
2022-10-22T02:40:13.722Z,92.86
2022-10-22T02:42:46.179Z,92.90
2022-10-22T02:45:15.850Z,93.06
2022-10-22T02:47:44.381Z,93.05
2022-10-22T02:50:13.343Z,92.99
2022-10-22T02:52:44.180Z,92.93
2022-10-22T02:55:15.319Z,93.01
2022-10-22T02:57:45.314Z,93.04
2022-10-22T03:00:15.837Z,93.12
2022-10-22T03:02:45.432Z,93.10
2022-10-22T03:05:13.911Z,93.16
2022-10-22T03:07:43.271Z,93.32
2022-10-22T03:10:14.568Z,93.33
2022-10-22T03:12:43.367Z,93.35
2022-10-22T03:15:12.111Z,93.36
2022-10-22T03:17:42.906Z,93.42
2022-10-22T03:20:11.638Z,93.50
2022-10-22T03:22:42.731Z,93.44
2022-10-22T03:25:18.279Z,93.45
2022-10-22T03:27:48.961Z,93.42
2022-10-22T03:30:17.897Z,93.55
2022-10-22T03:32:46.740Z,93.56
2022-10-22T03:35:15.431Z,93.60
2022-10-22T03:37:47.031Z,93.63
2022-10-22T03:40:19.612Z,93.71
2022-10-22T03:42:48.199Z,93.77
2022-10-22T03:45:17.269Z,93.82
2022-10-22T03:47:52.486Z,93.82
2022-10-22T03:50:21.371Z,93.85
2022-10-22T03:52:53.866Z,93.86
2022-10-22T03:55:22.671Z,93.95
2022-10-22T03:57:53.993Z,93.98
2022-10-22T04:00:22.819Z,94.06
2022-10-22T04:02:51.409Z,94.11
2022-10-22T04:05:20.158Z,94.13
2022-10-22T04:07:48.895Z,94.12
2022-10-22T04:10:18.049Z,94.04
2022-10-22T04:12:48.314Z,94.15
2022-10-22T04:15:17.667Z,94.13
2022-10-22T04:17:46.533Z,94.21
2022-10-22T04:20:17.800Z,94.24
2022-10-22T04:22:46.391Z,94.17
2022-10-22T04:25:17.562Z,94.19
2022-10-22T04:27:51.378Z,94.09
2022-10-22T04:30:20.339Z,94.07
2022-10-22T04:32:48.937Z,94.21
2022-10-22T04:35:17.976Z,94.23
2022-10-22T04:37:47.188Z,94.18
2022-10-22T04:40:18.201Z,94.19
2022-10-22T04:42:49.935Z,94.19
2022-10-22T04:45:21.777Z,94.19
2022-10-22T04:47:50.961Z,94.11
2022-10-22T04:50:19.657Z,94.05
2022-10-22T04:52:48.646Z,94.12
2022-10-22T04:55:22.669Z,94.14
2022-10-22T04:57:50.697Z,94.15
2022-10-22T05:00:23.721Z,94.04
2022-10-22T05:02:52.423Z,94.02
2022-10-22T05:05:24.178Z,94.04
2022-10-22T05:07:52.860Z,94.00
2022-10-22T05:10:24.551Z,93.98
2022-10-22T05:12:58.751Z,93.97
2022-10-22T05:15:31.478Z,93.93
2022-10-22T05:18:03.576Z,93.91
2022-10-22T05:20:33.512Z,93.93
2022-10-22T05:23:04.836Z,93.97
2022-10-22T05:25:37.553Z,93.93
2022-10-22T05:28:06.689Z,93.89
2022-10-22T05:30:38.567Z,93.86
2022-10-22T05:33:11.983Z,93.82
2022-10-22T05:35:46.639Z,93.89
2022-10-22T05:38:18.769Z,93.86
2022-10-22T05:41:05.565Z,93.84
2022-10-22T05:43:35.301Z,93.79
2022-10-22T05:46:07.400Z,93.80
2022-10-22T05:48:38.198Z,93.81
2022-10-22T05:51:10.378Z,93.84
2022-10-22T05:53:43.921Z,93.94
2022-10-22T05:56:14.977Z,93.92
2022-10-22T05:58:44.727Z,93.85
2022-10-22T06:01:19.128Z,93.86
2022-10-22T06:03:53.719Z,93.87
2022-10-22T06:06:30.626Z,93.83
2022-10-22T06:09:06.577Z,93.81
2022-10-22T06:11:42.767Z,93.76
2022-10-22T06:14:20.682Z,93.77
2022-10-22T06:16:50.524Z,93.71
2022-10-22T06:19:26.208Z,93.62
2022-10-22T06:21:58.733Z,93.54
2022-10-22T06:24:27.625Z,93.44
2022-10-22T06:26:59.480Z,93.34
2022-10-22T06:29:28.460Z,93.32
2022-10-22T06:32:00.881Z,93.23
2022-10-22T06:34:31.013Z,93.12
2022-10-22T06:36:59.757Z,93.07
2022-10-22T06:39:31.764Z,93.01
2022-10-22T06:42:01.151Z,92.99
2022-10-22T06:44:31.854Z,92.94
2022-10-22T06:47:03.409Z,92.89
2022-10-22T06:49:35.384Z,92.80
2022-10-22T06:52:05.079Z,92.70
2022-10-22T06:54:34.024Z,92.71
2022-10-22T06:57:02.702Z,92.70
2022-10-22T06:59:31.773Z,92.63
2022-10-22T07:02:00.286Z,92.56
2022-10-22T07:04:30.047Z,92.48
2022-10-22T07:07:01.673Z,92.41
2022-10-22T07:09:30.505Z,92.39
2022-10-22T07:11:59.511Z,92.33
2022-10-22T07:14:30.937Z,92.26
2022-10-22T07:17:06.087Z,92.20
2022-10-22T07:19:37.727Z,92.08
2022-10-22T07:22:09.066Z,91.99
2022-10-22T07:24:37.975Z,92.07
2022-10-22T07:27:09.451Z,92.03
2022-10-22T07:29:41.714Z,92.11
2022-10-22T07:32:20.609Z,92.14
2022-10-22T07:34:54.136Z,92.06
2022-10-22T07:37:24.111Z,91.88
2022-10-22T07:39:53.300Z,91.98
2022-10-22T07:42:23.121Z,92.03
2022-10-22T07:44:54.283Z,91.96
2022-10-22T07:47:23.445Z,92.03
2022-10-22T07:49:52.350Z,92.04
2022-10-22T07:52:21.182Z,92.11
2022-10-22T07:54:50.138Z,92.16
2022-10-22T07:57:18.809Z,92.13
2022-10-22T07:59:57.955Z,92.10
2022-10-22T08:05:16.786Z,92.08
2022-10-22T08:07:48.188Z,91.99
2022-10-22T08:10:16.771Z,92.01
2022-10-22T08:12:45.558Z,92.03
2022-10-22T08:15:14.849Z,92.03
2022-10-22T08:17:46.042Z,91.95
2022-10-22T08:20:14.816Z,91.86
2022-10-22T08:22:45.990Z,91.73
2022-10-22T08:25:17.495Z,91.69
2022-10-22T08:27:47.644Z,91.62
2022-10-22T08:30:16.645Z,91.58
2022-10-22T08:32:49.388Z,91.41
2022-10-22T08:35:20.320Z,91.41
2022-10-22T08:37:49.464Z,91.48
2022-10-22T08:40:31.218Z,91.28
2022-10-22T08:43:47.325Z,91.29
2022-10-22T08:46:49.158Z,91.23
2022-10-22T08:49:21.579Z,91.10
2022-10-22T08:51:50.645Z,90.83
2022-10-22T08:54:30.042Z,90.75
2022-10-22T08:57:17.102Z,90.67
2022-10-22T09:00:00.020Z,90.52
2022-10-22T09:02:42.211Z,90.51
2022-10-22T09:05:33.438Z,90.46
2022-10-22T09:08:05.588Z,90.46
2022-10-22T09:10:38.340Z,90.53
2022-10-22T09:13:11.854Z,90.41
2022-10-22T09:15:43.766Z,90.44
2022-10-22T09:18:32.356Z,90.49
2022-10-22T09:21:15.017Z,90.52
2022-10-22T09:23:56.413Z,90.43
2022-10-22T09:29:54.078Z,90.57
2022-10-22T09:32:23.422Z,90.49
2022-10-22T09:34:57.746Z,90.48
2022-10-22T09:37:29.104Z,90.27
2022-10-22T09:40:05.824Z,90.22
2022-10-22T09:42:35.042Z,89.67
2022-10-22T09:45:04.658Z,89.36
2022-10-22T09:48:00.447Z,89.19
2022-10-22T09:50:38.593Z,88.78
2022-10-22T09:53:18.339Z,88.32
2022-10-22T09:58:25.452Z,87.95
2022-10-22T10:01:01.048Z,87.70
2022-10-22T10:03:32.963Z,88.17
2022-10-22T10:06:07.003Z,88.02
2022-10-22T10:08:35.731Z,87.66
2022-10-22T10:11:10.809Z,87.46
2022-10-22T10:14:01.879Z,87.50
2022-10-22T10:16:52.883Z,87.37
2022-10-22T10:19:35.840Z,87.28
2022-10-22T10:22:22.073Z,87.72
2022-10-22T10:25:02.918Z,87.40
2022-10-22T10:27:45.951Z,87.51
2022-10-22T10:30:17.885Z,87.53
2022-10-22T10:33:11.444Z,87.62
2022-10-22T10:35:54.769Z,87.70
2022-10-22T10:38:40.251Z,87.83
2022-10-22T10:41:23.759Z,88.00
2022-10-22T10:44:16.424Z,88.12
2022-10-22T10:46:57.981Z,88.27
2022-10-22T10:49:30.594Z,88.46
2022-10-22T10:52:08.140Z,88.57
2022-10-22T10:54:47.875Z,88.68
2022-10-22T10:57:32.706Z,88.67
2022-10-22T11:00:10.058Z,88.72
2022-10-22T11:03:18.919Z,88.65
2022-10-22T11:05:54.250Z,88.77
2022-10-22T11:08:28.333Z,88.59
2022-10-22T11:11:07.987Z,88.58
2022-10-22T11:13:43.207Z,88.72
2022-10-22T11:16:23.214Z,88.65
2022-10-22T11:19:03.053Z,88.69
2022-10-22T11:21:42.391Z,88.73
2022-10-22T11:24:22.759Z,88.75
2022-10-22T11:26:58.129Z,88.96
2022-10-22T11:29:35.055Z,88.84
2022-10-22T11:32:16.585Z,88.61
2022-10-22T11:34:56.818Z,88.55
2022-10-22T11:37:32.600Z,88.39
2022-10-22T11:40:08.669Z,88.44
2022-10-22T11:42:42.421Z,88.54
2022-10-22T11:45:29.320Z,88.45
2022-10-22T11:48:16.041Z,88.57
2022-10-22T11:50:56.218Z,88.62
2022-10-22T11:53:32.329Z,88.52
2022-10-22T11:56:19.699Z,88.51
2022-10-22T11:58:59.634Z,88.46
2022-10-22T12:01:40.448Z,88.28
2022-10-22T12:04:22.089Z,88.18
2022-10-22T12:07:09.449Z,88.11
2022-10-22T12:12:35.919Z,88.02
2022-10-22T12:15:31.912Z,87.93
2022-10-22T12:18:04.160Z,87.70
2022-10-22T12:20:32.741Z,87.64
2022-10-22T12:23:02.265Z,87.52
2022-10-22T12:25:36.108Z,87.57
2022-10-22T12:28:15.678Z,87.56
2022-10-22T12:30:45.348Z,87.71
2022-10-22T12:33:23.288Z,87.52
2022-10-22T12:35:57.190Z,87.59
2022-10-22T12:38:25.949Z,87.66
2022-10-22T12:40:57.274Z,87.65
2022-10-22T12:43:30.286Z,87.68
2022-10-22T12:46:00.205Z,87.56
2022-10-22T12:48:36.298Z,87.48
2022-10-22T12:51:09.116Z,87.44
2022-10-22T12:53:43.772Z,87.25
2022-10-22T12:56:15.376Z,87.52
2022-10-22T12:59:02.955Z,87.32
2022-10-22T13:01:42.817Z,87.39
2022-10-22T13:04:32.253Z,87.36
2022-10-22T13:07:22.362Z,87.33
2022-10-22T13:10:00.163Z,87.29
2022-10-22T13:12:36.666Z,87.34
2022-10-22T13:15:23.554Z,87.45
2022-10-22T13:18:03.492Z,87.60
2022-10-22T13:20:32.883Z,87.59
2022-10-22T13:23:04.158Z,87.57
2022-10-22T13:25:34.552Z,87.61
2022-10-22T13:28:24.521Z,87.72
2022-10-22T13:30:56.848Z,87.65
2022-10-22T13:33:29.379Z,87.67
2022-10-22T13:36:01.615Z,87.74
2022-10-22T13:38:41.924Z,87.80
2022-10-22T13:41:26.396Z,87.83
2022-10-22T13:44:00.689Z,87.97
2022-10-22T13:46:35.369Z,88.06
2022-10-22T13:49:05.128Z,88.08
2022-10-22T13:51:37.002Z,88.20
2022-10-22T13:54:13.680Z,88.26
2022-10-22T13:56:44.662Z,88.36
2022-10-22T13:59:15.402Z,88.42
2022-10-22T14:01:54.437Z,88.38
2022-10-22T14:04:26.434Z,88.47
2022-10-22T14:06:57.673Z,88.56
2022-10-22T14:09:29.419Z,88.56
2022-10-22T14:11:58.099Z,88.59
2022-10-22T14:14:27.527Z,88.70
2022-10-22T14:16:56.419Z,88.80
2022-10-22T14:19:25.776Z,88.80
2022-10-22T14:22:12.302Z,88.82
2022-10-22T14:25:23.247Z,88.89
2022-10-22T14:28:10.882Z,88.92
2022-10-22T14:30:59.100Z,88.97
2022-10-22T14:33:49.088Z,89.08
2022-10-22T14:36:40.707Z,89.16
2022-10-22T14:39:40.869Z,89.17
2022-10-22T14:42:21.387Z,89.21
2022-10-22T14:45:17.535Z,89.26
2022-10-22T14:48:09.541Z,89.30
2022-10-22T14:50:57.902Z,89.32
